createdAt,value
2022-11-17T00:02:52.945Z,98955.13
2022-11-17T00:05:54.834Z,98947.91
2022-11-17T00:08:56.679Z,98955.34
2022-11-17T00:12:22.352Z,98962.06
2022-11-17T00:15:24.695Z,98965.09
2022-11-17T00:18:45.250Z,98957.91
2022-11-17T00:21:47.153Z,98963.06
2022-11-17T00:24:49.201Z,98966.94
2022-11-17T00:27:50.985Z,98962.28
2022-11-17T00:31:11.753Z,98962.31
2022-11-17T00:34:14.852Z,98961.28
2022-11-17T00:37:17.031Z,98967.69
2022-11-17T00:40:18.903Z,98969.00
2022-11-17T00:43:20.751Z,98966.13
2022-11-17T00:46:22.862Z,98957.87
2022-11-17T00:49:27.671Z,98952.09
2022-11-17T00:52:29.507Z,98944.81
2022-11-17T00:55:31.460Z,98947.34
2022-11-17T00:58:35.522Z,98949.50
2022-11-17T01:01:37.854Z,98948.44
2022-11-17T01:04:39.736Z,98952.00
2022-11-17T01:07:41.628Z,98945.91
2022-11-17T01:10:43.450Z,98942.75
2022-11-17T01:13:45.851Z,98940.91
2022-11-17T01:16:47.668Z,98920.34
2022-11-17T01:19:49.457Z,98918.31
2022-11-17T01:22:51.303Z,98917.69
2022-11-17T01:25:53.127Z,98914.00
2022-11-17T01:28:55.351Z,98906.69
2022-11-17T01:31:57.195Z,98908.44
2022-11-17T01:34:59.012Z,98910.53
2022-11-17T01:38:00.797Z,98912.00
2022-11-17T01:41:04.026Z,98896.78
2022-11-17T01:44:24.645Z,98912.13
2022-11-17T01:47:28.800Z,98911.59
2022-11-17T01:50:37.805Z,98912.22
2022-11-17T01:53:39.635Z,98912.56
2022-11-17T01:56:42.329Z,98906.62
2022-11-17T01:59:49.246Z,98922.16
2022-11-17T02:02:51.088Z,98924.09
2022-11-17T02:06:16.622Z,98925.13
2022-11-17T02:09:18.486Z,98933.66
2022-11-17T02:12:20.713Z,98931.12
2022-11-17T02:15:22.695Z,98935.22
2022-11-17T02:18:24.464Z,98940.66
2022-11-17T02:21:33.649Z,98934.25
2022-11-17T02:24:41.537Z,98930.84
2022-11-17T02:27:49.666Z,98934.94
2022-11-17T02:31:10.497Z,98927.63
2022-11-17T02:34:16.835Z,98920.28
2022-11-17T02:37:29.323Z,98924.16
2022-11-17T02:40:32.358Z,98919.25
2022-11-17T02:43:54.414Z,98914.97
2022-11-17T02:46:58.199Z,98905.31
2022-11-17T02:50:01.705Z,98910.28
2022-11-17T02:53:03.535Z,98902.09
2022-11-17T02:56:05.476Z,98903.59
2022-11-17T02:59:07.343Z,98897.53
2022-11-17T03:02:12.187Z,98889.88
2022-11-17T03:05:27.618Z,98896.22
2022-11-17T03:08:33.273Z,98901.94
2022-11-17T03:11:40.120Z,98909.50
2022-11-17T03:14:41.909Z,98906.28
2022-11-17T03:17:46.761Z,98881.56
2022-11-17T03:20:54.735Z,98881.16
2022-11-17T03:24:00.888Z,98864.56
2022-11-17T03:27:10.769Z,98873.53
2022-11-17T03:30:12.896Z,98881.56
2022-11-17T03:33:15.772Z,98863.00
2022-11-17T03:36:19.353Z,98867.19
2022-11-17T03:39:24.332Z,98878.53
2022-11-17T03:42:27.868Z,98871.31
2022-11-17T03:45:39.584Z,98889.84
2022-11-17T03:48:43.721Z,98894.72
2022-11-17T03:51:45.541Z,98901.25
2022-11-17T03:54:47.393Z,98915.84
2022-11-17T03:57:51.920Z,98916.06
2022-11-17T04:00:53.749Z,98925.25
2022-11-17T04:03:55.540Z,98927.00
2022-11-17T04:06:57.427Z,98939.50
2022-11-17T04:09:59.291Z,98939.50
2022-11-17T04:13:19.507Z,98931.81
2022-11-17T04:16:21.308Z,98932.78
2022-11-17T04:19:23.219Z,98933.37
2022-11-17T04:22:25.041Z,98926.78
2022-11-17T04:25:46.848Z,98918.81
2022-11-17T04:28:49.672Z,98924.34
2022-11-17T04:31:51.502Z,98917.47
2022-11-17T04:34:53.358Z,98915.47
2022-11-17T04:37:55.141Z,98918.00
2022-11-17T04:41:35.838Z,98920.06
2022-11-17T04:44:37.641Z,98915.16
2022-11-17T04:47:39.540Z,98924.19
2022-11-17T04:50:41.379Z,98922.97
2022-11-17T04:53:43.532Z,98929.59
2022-11-17T04:56:45.528Z,98933.97
2022-11-17T04:59:47.359Z,98955.50
2022-11-17T05:02:49.198Z,98958.88
2022-11-17T05:05:51.004Z,98957.81
2022-11-17T05:08:56.044Z,98950.81
2022-11-17T05:12:16.522Z,98951.72
2022-11-17T05:15:38.268Z,98959.69
2022-11-17T05:18:40.376Z,98959.84
2022-11-17T05:21:42.195Z,98955.16
2022-11-17T05:24:44.003Z,98952.81
2022-11-17T05:27:45.810Z,98951.88
2022-11-17T05:30:47.601Z,98961.47
2022-11-17T05:33:49.402Z,98959.13
2022-11-17T05:36:51.204Z,98955.78
2022-11-17T05:39:52.989Z,98962.09
2022-11-17T05:42:57.169Z,98952.34
2022-11-17T05:45:59.156Z,98949.75
2022-11-17T05:49:00.989Z,98950.66
2022-11-17T05:52:02.865Z,98960.00
2022-11-17T05:55:04.877Z,98965.81
2022-11-17T05:58:10.898Z,98967.22
2022-11-17T06:01:13.209Z,98966.63
2022-11-17T06:04:15.480Z,98963.63
2022-11-17T06:07:18.256Z,98975.44
2022-11-17T06:10:20.277Z,98980.72
2022-11-17T06:13:26.184Z,98975.84
2022-11-17T06:16:28.720Z,98983.62
2022-11-17T06:19:34.929Z,98989.88
2022-11-17T06:22:36.754Z,98980.72
2022-11-17T06:25:38.721Z,98978.47
2022-11-17T06:28:40.963Z,98986.25
2022-11-17T06:31:42.869Z,98993.47
2022-11-17T06:34:49.131Z,98980.53
2022-11-17T06:37:53.883Z,98986.87
2022-11-17T06:40:55.856Z,98973.88
2022-11-17T06:43:57.781Z,98981.47
2022-11-17T06:46:59.613Z,98986.53
2022-11-17T06:50:01.477Z,98991.00
2022-11-17T06:53:04.546Z,98991.03
2022-11-17T06:56:09.818Z,98997.34
2022-11-17T06:59:11.722Z,98998.22
2022-11-17T07:02:13.610Z,99006.00
2022-11-17T07:05:15.452Z,98995.66
2022-11-17T07:08:19.198Z,99000.28
2022-11-17T07:11:21.191Z,98995.84
2022-11-17T07:14:23.428Z,98999.34
2022-11-17T07:17:25.456Z,98992.56
2022-11-17T07:20:27.428Z,98999.00
2022-11-17T07:23:29.797Z,98994.47
2022-11-17T07:26:31.722Z,98997.59
2022-11-17T07:29:33.671Z,99002.00
2022-11-17T07:32:35.533Z,99010.87
2022-11-17T07:35:37.502Z,98999.31
2022-11-17T07:38:40.208Z,98985.31
2022-11-17T07:41:42.442Z,98991.03
2022-11-17T07:44:44.412Z,98985.13
2022-11-17T07:47:46.864Z,98991.97
2022-11-17T07:50:48.819Z,98996.25
2022-11-17T07:53:50.682Z,98997.56
2022-11-17T07:56:52.798Z,99003.53
2022-11-17T07:59:54.754Z,99000.63
2022-11-17T08:03:00.003Z,99007.72
2022-11-17T08:06:03.124Z,98998.53
2022-11-17T08:09:06.406Z,98999.84
2022-11-17T08:12:08.850Z,99003.09
2022-11-17T08:15:11.454Z,99004.94
2022-11-17T08:18:13.608Z,98998.19
2022-11-17T08:21:15.770Z,99020.88
2022-11-17T08:24:17.867Z,99018.25
2022-11-17T08:27:20.013Z,99024.66
2022-11-17T08:30:22.194Z,99021.31
2022-11-17T08:33:24.266Z,99021.88
2022-11-17T08:36:26.266Z,99025.72
2022-11-17T08:39:28.613Z,99033.13
2022-11-17T08:42:30.512Z,99029.25
2022-11-17T08:45:32.418Z,99037.88
2022-11-17T08:48:34.566Z,99037.69
2022-11-17T08:51:37.023Z,99031.38
2022-11-17T08:54:38.862Z,99026.22
2022-11-17T08:57:40.790Z,99041.69
2022-11-17T09:00:43.031Z,99059.38
2022-11-17T09:03:45.542Z,99062.84
2022-11-17T09:06:47.394Z,99054.44
2022-11-17T09:09:49.328Z,99042.44
2022-11-17T09:12:55.020Z,99056.50
2022-11-17T09:16:00.469Z,99060.03
2022-11-17T09:19:02.866Z,99058.56
2022-11-17T09:22:05.435Z,99060.78
2022-11-17T09:25:13.030Z,99061.81
2022-11-17T09:28:15.599Z,99077.00
2022-11-17T09:31:19.026Z,99078.41
2022-11-17T09:34:23.512Z,99080.09
2022-11-17T09:37:26.526Z,99060.53
2022-11-17T09:40:31.889Z,99059.50
2022-11-17T09:43:38.023Z,99065.66
2022-11-17T09:46:58.611Z,99073.97
2022-11-17T09:50:03.713Z,99062.78
2022-11-17T09:53:05.535Z,99045.38
2022-11-17T09:56:07.965Z,99046.91
2022-11-17T09:59:12.331Z,99042.22
2022-11-17T10:02:14.287Z,99039.53
2022-11-17T10:05:20.194Z,99034.84
2022-11-17T10:08:38.238Z,99042.78
2022-11-17T10:11:41.291Z,99029.59
2022-11-17T10:14:43.187Z,99046.97
2022-11-17T10:17:45.115Z,99037.47
2022-11-17T10:20:47.277Z,99045.91
2022-11-17T10:23:55.539Z,99042.94
2022-11-17T10:26:57.402Z,99044.94
2022-11-17T10:30:00.453Z,99037.88
2022-11-17T10:33:03.287Z,99038.72
2022-11-17T10:36:14.431Z,99037.78
2022-11-17T10:39:33.046Z,99047.69
2022-11-17T10:42:34.875Z,99040.37
2022-11-17T10:45:36.808Z,99054.00
2022-11-17T10:48:39.425Z,99053.28
2022-11-17T10:51:41.361Z,99043.88
2022-11-17T10:54:43.514Z,99051.16
2022-11-17T10:57:46.212Z,99050.13
2022-11-17T11:00:52.220Z,99055.56
2022-11-17T11:03:55.626Z,99067.94
2022-11-17T11:07:08.481Z,99053.25
2022-11-17T11:10:10.447Z,99061.34
2022-11-17T11:13:24.873Z,99047.84
2022-11-17T11:16:27.249Z,99056.78
2022-11-17T11:19:29.187Z,99048.44
2022-11-17T11:23:00.514Z,99049.56
2022-11-17T11:26:12.330Z,99050.66
2022-11-17T11:29:26.591Z,99038.38
2022-11-17T11:32:37.835Z,99047.66
2022-11-17T11:35:57.785Z,99052.62
2022-11-17T11:39:18.490Z,99057.28
2022-11-17T11:42:20.423Z,99052.66
2022-11-17T11:45:24.318Z,99050.25
2022-11-17T11:48:32.411Z,99052.78
2022-11-17T11:51:35.178Z,99045.72
2022-11-17T11:54:40.507Z,99045.03
2022-11-17T11:57:45.189Z,99050.78
2022-11-17T12:00:47.292Z,99041.63
2022-11-17T12:04:09.743Z,99045.22
2022-11-17T12:07:17.889Z,99039.50
2022-11-17T12:10:38.480Z,99046.34
2022-11-17T12:13:47.284Z,99049.16
2022-11-17T12:16:51.855Z,99051.44
2022-11-17T12:19:55.445Z,99055.75
2022-11-17T12:23:06.595Z,99061.03
2022-11-17T12:26:08.611Z,99048.34
2022-11-17T12:29:20.140Z,99044.12
2022-11-17T12:32:57.735Z,99047.09
2022-11-17T12:36:28.501Z,99060.31
2022-11-17T12:39:51.207Z,99051.75
2022-11-17T12:43:31.798Z,99054.50
2022-11-17T12:46:33.702Z,99056.03
2022-11-17T12:49:38.865Z,99054.94
2022-11-17T12:52:43.475Z,99050.72
2022-11-17T12:55:45.343Z,99044.97
2022-11-17T12:59:05.919Z,99055.44
2022-11-17T13:02:17.723Z,99048.72
2022-11-17T13:05:20.759Z,99047.38
2022-11-17T13:08:25.787Z,99041.41
2022-11-17T13:11:27.813Z,99040.72
2022-11-17T13:14:31.172Z,99052.25
2022-11-17T13:17:45.008Z,99047.41
2022-11-17T13:20:48.063Z,99057.94
2022-11-17T13:23:49.912Z,99067.78
2022-11-17T13:26:58.073Z,99069.81
2022-11-17T13:30:23.223Z,99065.34
2022-11-17T13:33:25.254Z,99063.87
2022-11-17T13:36:27.554Z,99073.78
2022-11-17T13:39:29.490Z,99083.03
2022-11-17T13:42:31.959Z,99100.34
2022-11-17T13:45:34.027Z,99095.88
2022-11-17T13:48:36.881Z,99090.31
2022-11-17T13:51:39.383Z,99090.88
2022-11-17T13:54:43.274Z,99099.22
2022-11-17T13:58:04.735Z,99092.69
2022-11-17T14:01:06.786Z,99085.47
2022-11-17T14:04:19.357Z,99081.72
2022-11-17T14:07:29.311Z,99076.38
2022-11-17T14:10:34.395Z,99080.53
2022-11-17T14:13:42.475Z,99090.47
2022-11-17T14:16:44.664Z,99087.37
2022-11-17T14:19:46.851Z,99087.19
2022-11-17T14:23:08.544Z,99076.47
2022-11-17T14:26:20.682Z,99068.31
2022-11-17T14:29:22.557Z,99068.88
2022-11-17T14:32:24.452Z,99065.59
2022-11-17T14:35:26.394Z,99069.19
2022-11-17T14:38:30.691Z,99067.72
2022-11-17T14:41:32.572Z,99068.19
2022-11-17T14:44:34.562Z,99069.88
2022-11-17T14:47:36.717Z,99070.97
2022-11-17T14:50:38.728Z,99094.31
2022-11-17T14:53:42.038Z,99091.94
2022-11-17T14:56:44.422Z,99087.25
2022-11-17T14:59:46.619Z,99088.97
2022-11-17T15:02:48.627Z,99086.69
2022-11-17T15:05:50.505Z,99084.72
2022-11-17T15:08:59.942Z,99079.47
2022-11-17T15:12:01.850Z,99078.81
2022-11-17T15:15:05.306Z,99073.13
2022-11-17T15:18:07.264Z,99075.00
2022-11-17T15:21:09.836Z,99085.22
2022-11-17T15:24:12.401Z,99089.94
2022-11-17T15:27:14.693Z,99088.97
2022-11-17T15:30:17.227Z,99084.44
2022-11-17T15:33:19.246Z,99090.75
2022-11-17T15:36:21.631Z,99098.84
2022-11-17T15:39:23.813Z,99093.16
2022-11-17T15:42:25.922Z,99074.47
2022-11-17T15:45:28.104Z,99091.63
2022-11-17T15:48:30.841Z,99081.00
2022-11-17T15:51:32.997Z,99077.53
2022-11-17T15:54:34.922Z,99083.66
2022-11-17T15:57:36.994Z,99077.50
2022-11-17T16:00:40.313Z,99067.59
2022-11-17T16:03:43.474Z,99074.31
2022-11-17T16:06:46.464Z,99077.66
2022-11-17T16:09:50.292Z,99068.41
2022-11-17T16:12:52.320Z,99057.75
2022-11-17T16:15:54.578Z,99061.22
2022-11-17T16:18:57.087Z,99060.66
2022-11-17T16:21:58.942Z,99059.31
2022-11-17T16:25:00.802Z,99062.81
2022-11-17T16:28:02.749Z,99053.84
2022-11-17T16:31:33.993Z,99055.75
2022-11-17T16:34:38.509Z,99051.38
2022-11-17T16:37:40.708Z,99063.87
2022-11-17T16:40:42.757Z,99067.97
2022-11-17T16:43:44.848Z,99076.94
2022-11-17T16:46:47.516Z,99095.66
2022-11-17T16:49:51.792Z,99098.00
2022-11-17T16:52:53.962Z,99112.28
2022-11-17T16:55:55.907Z,99114.28
2022-11-17T16:58:58.818Z,99114.50
2022-11-17T17:02:00.851Z,99113.81
2022-11-17T17:05:02.707Z,99120.06
2022-11-17T17:08:04.657Z,99123.78
2022-11-17T17:11:10.154Z,99127.53
2022-11-17T17:14:12.618Z,99133.66
2022-11-17T17:17:14.495Z,99139.97
2022-11-17T17:20:16.308Z,99140.41
2022-11-17T17:23:18.586Z,99142.31
2022-11-17T17:26:22.295Z,99135.59
2022-11-17T17:29:24.188Z,99127.97
2022-11-17T17:32:26.081Z,99122.16
2022-11-17T17:35:27.918Z,99126.91
2022-11-17T17:38:29.848Z,99133.34
2022-11-17T17:41:33.290Z,99135.59
2022-11-17T17:44:35.181Z,99128.06
2022-11-17T17:47:37.058Z,99125.22
2022-11-17T17:50:40.315Z,99131.16
2022-11-17T17:53:42.434Z,99122.06
2022-11-17T17:56:44.413Z,99121.28
2022-11-17T17:59:46.568Z,99113.94
2022-11-17T18:02:48.887Z,99132.81
2022-11-17T18:05:50.852Z,99133.53
2022-11-17T18:08:52.805Z,99126.19
2022-11-17T18:11:54.683Z,99128.41
2022-11-17T18:14:56.621Z,99135.31
2022-11-17T18:17:58.571Z,99130.63
2022-11-17T18:21:07.407Z,99114.56
2022-11-17T18:24:10.025Z,99123.09
2022-11-17T18:27:11.913Z,99121.41
2022-11-17T18:30:13.910Z,99105.03
2022-11-17T18:33:16.436Z,99110.25
2022-11-17T18:36:18.423Z,99104.00
2022-11-17T18:39:21.329Z,99104.34
2022-11-17T18:42:23.385Z,99096.94
2022-11-17T18:45:25.498Z,99092.16
2022-11-17T18:48:27.379Z,99089.03
2022-11-17T18:51:30.219Z,99085.13
2022-11-17T18:54:32.187Z,99091.75
2022-11-17T18:57:34.018Z,99094.47
2022-11-17T19:00:36.009Z,99084.09
2022-11-17T19:03:38.527Z,99098.00
2022-11-17T19:06:40.503Z,99090.62
2022-11-17T19:09:42.424Z,99085.66
2022-11-17T19:12:44.324Z,99091.25
2022-11-17T19:15:46.148Z,99094.66
2022-11-17T19:18:48.619Z,99096.41
2022-11-17T19:21:50.523Z,99093.25
2022-11-17T19:24:52.427Z,99091.66
2022-11-17T19:27:54.362Z,99084.41
2022-11-17T19:31:00.260Z,99082.41
2022-11-17T19:34:02.169Z,99085.75
2022-11-17T19:37:03.997Z,99066.66
2022-11-17T19:40:06.110Z,99082.12
2022-11-17T19:43:07.965Z,99076.97
2022-11-17T19:46:11.982Z,99081.00
2022-11-17T19:49:14.292Z,99086.72
2022-11-17T19:52:16.356Z,99089.91
2022-11-17T19:55:18.312Z,99075.81
2022-11-17T19:58:20.366Z,99071.41
2022-11-17T20:01:26.172Z,99074.38
2022-11-17T20:04:28.146Z,99084.78
2022-11-17T20:07:30.123Z,99084.09
2022-11-17T20:10:32.654Z,99075.25
2022-11-17T20:13:34.919Z,99080.94
2022-11-17T20:16:38.717Z,99071.25
2022-11-17T20:19:40.573Z,99077.88
2022-11-17T20:22:42.671Z,99092.53
2022-11-17T20:25:45.062Z,99070.72
2022-11-17T20:28:47.899Z,99028.28
2022-11-17T20:31:49.881Z,99059.41
2022-11-17T20:34:51.691Z,99085.13
2022-11-17T20:37:53.567Z,99086.59
2022-11-17T20:40:58.999Z,99088.19
2022-11-17T20:44:01.883Z,99093.81
2022-11-17T20:47:03.878Z,99102.25
2022-11-17T20:50:06.028Z,99109.78
2022-11-17T20:53:07.986Z,99103.75
2022-11-17T20:56:10.343Z,99107.13
2022-11-17T20:59:18.501Z,99109.19
2022-11-17T21:02:21.790Z,99108.97
2022-11-17T21:05:23.663Z,99095.97
2022-11-17T21:08:26.096Z,99090.81
2022-11-17T21:12:03.632Z,99084.66
2022-11-17T21:15:06.600Z,99094.94
2022-11-17T21:18:25.667Z,99081.47
2022-11-17T21:21:27.802Z,99076.31
2022-11-17T21:24:29.751Z,99087.88
2022-11-17T21:27:31.594Z,99082.81
2022-11-17T21:30:33.866Z,99082.28
2022-11-17T21:33:36.112Z,99079.75
2022-11-17T21:36:37.921Z,99081.97
2022-11-17T21:39:39.760Z,99079.66
2022-11-17T21:42:41.639Z,99091.34
2022-11-17T21:45:43.609Z,99110.22
2022-11-17T21:48:45.651Z,99099.38
2022-11-17T21:51:47.520Z,99092.00
2022-11-17T21:54:49.395Z,99096.06
2022-11-17T21:57:51.564Z,99082.78
2022-11-17T22:00:53.507Z,99079.34
2022-11-17T22:03:55.489Z,99065.78
2022-11-17T22:06:57.396Z,99078.81
2022-11-17T22:09:59.324Z,99064.25
2022-11-17T22:13:01.381Z,99080.38
2022-11-17T22:16:04.305Z,99081.88
2022-11-17T22:19:06.267Z,99077.34
2022-11-17T22:22:08.264Z,99073.97
2022-11-17T22:25:37.534Z,99078.16
2022-11-17T22:28:31.963Z,99086.44
2022-11-17T22:31:33.912Z,99071.87
2022-11-17T22:34:35.824Z,99063.56
2022-11-17T22:37:37.678Z,99059.84
2022-11-17T22:40:40.062Z,99052.34
2022-11-17T22:43:41.851Z,99051.16
2022-11-17T22:46:43.702Z,99048.13
2022-11-17T22:49:45.537Z,99045.94
2022-11-17T22:52:48.587Z,99055.37
2022-11-17T22:55:50.423Z,99040.22
2022-11-17T22:58:55.468Z,99041.25
2022-11-17T23:02:01.489Z,99044.12
2022-11-17T23:05:03.462Z,99037.16
2022-11-17T23:08:09.512Z,99037.62
2022-11-17T23:14:33.775Z,99032.72
2022-11-17T23:17:35.627Z,99036.28
2022-11-17T23:20:37.610Z,99036.84
2022-11-17T23:23:40.738Z,99028.03
2022-11-17T23:26:42.897Z,99025.44
2022-11-17T23:29:44.714Z,99020.81
2022-11-17T23:32:46.578Z,99028.13
2022-11-17T23:35:48.409Z,99024.72
2022-11-17T23:38:50.560Z,99041.25
2022-11-17T23:41:52.361Z,99045.59
2022-11-17T23:44:54.263Z,99032.09
2022-11-17T23:47:56.050Z,99031.56
2022-11-17T23:50:58.072Z,99041.03
2022-11-17T23:54:00.364Z,99032.66
2022-11-17T23:57:02.281Z,99036.22
